Time,TemperatureF,DewpointF,PressureIn,WindDirection,WindDirectionDegrees,WindSpeedMPH,WindSpeedGustMPH,Humidity,HourlyPrecipIn,Conditions,Clouds,dailyrainin,SoftwareType,DateUTC
2013-02-04 00:11:00,41.5,35.0,30.10,West,259,0.0,0.0,77,0.00,,,0.00,weatherlink.com 1.10,2013-02-04 06:11:00,
2013-02-04 00:26:00,40.8,35.0,30.09,West,259,0.0,0.0,81,0.00,,,0.00,weatherlink.com 1.10,2013-02-04 06:26:00,
2013-02-04 00:41:00,39.9,35.0,30.10,West,259,0.0,0.0,82,0.00,,,0.00,weatherlink.com 1.10,2013-02-04 06:41:00,
2013-02-04 00:56:00,39.4,35.0,30.09,West,259,0.0,0.0,84,0.00,,,0.00,weatherlink.com 1.10,2013-02-04 06:56:00,
2013-02-04 01:11:00,39.8,34.0,30.09,West,259,0.0,1.0,81,0.00,,,0.00,weatherlink.com 1.10,2013-02-04 07:11:00,
2013-02-04 01:26:00,39.6,33.0,30.08,WSW,258,0.0,0.0,78,0.00,,,0.00,weatherlink.com 1.10,2013-02-04 07:26:00,
2013-02-04 01:41:00,39.0,33.0,30.09,West,259,0.0,0.0,78,0.00,,,0.00,weatherlink.com 1.10,2013-02-04 07:41:00,
2013-02-04 01:56:00,39.6,33.0,30.09,West,259,0.0,0.0,77,0.00,,,0.00,weatherlink.com 1.10,2013-02-04 07:56:00,
2013-02-04 02:11:00,39.8,33.0,30.09,West,259,0.0,0.0,78,0.00,,,0.00,weatherlink.com 1.10,2013-02-04 08:11:00,
2013-02-04 02:26:00,39.3,33.0,30.08,West,259,0.0,0.0,77,0.00,,,0.00,weatherlink.com 1.10,2013-02-04 08:26:00,
2013-02-04 02:42:00,38.9,34.0,30.08,West,259,0.0,0.0,81,0.00,,,0.00,weatherlink.com 1.10,2013-02-04 08:42:00,
2013-02-04 02:57:00,38.9,34.0,30.08,WNW,285,0.0,1.0,81,0.00,,,0.00,weatherlink.com 1.10,2013-02-04 08:57:00,
2013-02-04 03:12:00,38.2,34.0,30.07,WNW,285,0.0,0.0,83,0.00,,,0.00,weatherlink.com 1.10,2013-02-04 09:12:00,
2013-02-04 03:27:00,38.0,33.0,30.07,WNW,285,0.0,0.0,83,0.00,,,0.00,weatherlink.com 1.10,2013-02-04 09:27:00,
2013-02-04 03:42:00,38.4,34.0,30.07,WNW,284,0.0,0.0,83,0.00,,,0.00,weatherlink.com 1.10,2013-02-04 09:42:00,
2013-02-04 03:57:00,38.4,33.0,30.07,WNW,284,0.0,0.0,82,0.00,,,0.00,weatherlink.com 1.10,2013-02-04 09:57:00,
2013-02-04 04:12:00,38.6,34.0,30.07,NE,56,0.0,0.0,83,0.00,,,0.00,weatherlink.com 1.10,2013-02-04 10:12:00,
2013-02-04 04:27:00,38.1,34.0,30.08,ENE,58,0.0,1.0,85,0.00,,,0.00,weatherlink.com 1.10,2013-02-04 10:27:00,
2013-02-04 04:42:00,37.5,34.0,30.08,ENE,58,0.0,0.0,88,0.00,,,0.00,weatherlink.com 1.10,2013-02-04 10:42:00,
2013-02-04 04:57:00,37.5,33.0,30.09,ENE,57,0.0,0.0,85,0.00,,,0.00,weatherlink.com 1.10,2013-02-04 10:57:00,
2013-02-04 05:12:00,37.7,33.0,30.08,NE,56,0.0,0.0,83,0.00,,,0.00,weatherlink.com 1.10,2013-02-04 11:12:00,
2013-02-04 05:27:00,37.6,34.0,30.09,ENE,57,0.0,0.0,85,0.00,,,0.00,weatherlink.com 1.10,2013-02-04 11:27:00,
2013-02-04 05:42:00,37.8,33.0,30.08,NE,56,0.0,0.0,84,0.00,,,0.00,weatherlink.com 1.10,2013-02-04 11:42:00,
2013-02-04 05:57:00,38.0,34.0,30.08,ENE,66,0.0,0.0,85,0.00,,,0.00,weatherlink.com 1.10,2013-02-04 11:57:00,
2013-02-04 06:12:00,38.2,34.0,30.08,ENE,67,0.0,0.0,84,0.00,,,0.00,weatherlink.com 1.10,2013-02-04 12:12:00,
2013-02-04 06:27:00,38.9,34.0,30.09,ENE,65,0.0,0.0,82,0.00,,,0.00,weatherlink.com 1.10,2013-02-04 12:27:00,
2013-02-04 06:42:00,39.2,34.0,30.08,East,93,0.0,1.0,80,0.00,,,0.00,weatherlink.com 1.10,2013-02-04 12:42:00,
2013-02-04 06:57:00,40.2,34.0,30.09,SE,134,0.0,1.0,78,0.00,,,0.00,weatherlink.com 1.10,2013-02-04 12:57:00,
2013-02-04 07:12:00,40.6,34.0,30.08,ESE,102,1.0,3.0,78,0.00,,,0.00,weatherlink.com 1.10,2013-02-04 13:12:00,
2013-02-04 07:27:00,40.8,34.0,30.09,East,86,0.0,2.0,78,0.00,,,0.00,weatherlink.com 1.10,2013-02-04 13:27:00,
2013-02-04 07:42:00,41.5,35.0,30.10,NNW,334,0.0,2.0,77,0.00,,,0.00,weatherlink.com 1.10,2013-02-04 13:42:00,
2013-02-04 07:57:00,42.2,35.0,30.10,East,87,1.0,3.0,75,0.00,,,0.00,weatherlink.com 1.10,2013-02-04 13:57:00,
2013-02-04 08:12:00,43.7,36.0,30.10,ENE,75,2.0,3.0,74,0.00,,,0.00,weatherlink.com 1.10,2013-02-04 14:12:00,
2013-02-04 08:27:00,44.6,35.0,30.09,East,81,1.0,4.0,69,0.00,,,0.00,weatherlink.com 1.10,2013-02-04 14:27:00,
2013-02-04 08:42:00,45.9,35.0,30.10,East,94,5.0,6.0,66,0.00,,,0.00,weatherlink.com 1.10,2013-02-04 14:42:00,
2013-02-04 08:57:00,47.8,36.0,30.11,East,91,1.0,5.0,63,0.00,,,0.00,weatherlink.com 1.10,2013-02-04 14:57:00,
2013-02-04 09:12:00,49.7,35.0,30.10,East,79,3.0,8.0,57,0.00,,,0.00,weatherlink.com 1.10,2013-02-04 15:12:00,
2013-02-04 09:27:00,51.1,36.0,30.11,East,89,3.0,5.0,56,0.00,,,0.00,weatherlink.com 1.10,2013-02-04 15:27:00,
2013-02-04 09:42:00,53.7,35.0,30.11,East,84,4.0,7.0,50,0.00,,,0.00,weatherlink.com 1.10,2013-02-04 15:42:00,
2013-02-04 09:57:00,55.7,36.0,30.11,East,84,4.0,7.0,47,0.00,,,0.00,weatherlink.com 1.10,2013-02-04 15:57:00,
2013-02-04 10:12:00,57.3,35.0,30.11,East,98,3.0,9.0,43,0.00,,,0.00,weatherlink.com 1.10,2013-02-04 16:12:00,
2013-02-04 10:28:00,57.5,34.0,30.11,WSW,250,1.0,7.0,42,0.00,,,0.00,weatherlink.com 1.10,2013-02-04 16:28:00,
2013-02-04 10:43:00,58.8,34.0,30.10,ENE,78,0.0,9.0,40,0.00,,,0.00,weatherlink.com 1.10,2013-02-04 16:43:00,
2013-02-04 10:59:00,59.0,35.0,30.10,East,94,2.0,8.0,40,0.00,,,0.00,weatherlink.com 1.10,2013-02-04 16:59:00,
2013-02-04 11:13:00,58.7,34.0,30.10,South,180,1.0,5.0,40,0.00,,,0.00,weatherlink.com 1.10,2013-02-04 17:13:00,
2013-02-04 11:28:00,58.8,35.0,30.09,East,93,2.0,6.0,41,0.00,,,0.00,weatherlink.com 1.10,2013-02-04 17:28:00,
2013-02-04 11:43:00,58.6,35.0,30.09,SE,133,1.0,4.0,41,0.00,,,0.00,weatherlink.com 1.10,2013-02-04 17:43:00,
2013-02-04 11:58:00,59.7,34.0,30.09,WSW,246,2.0,3.0,38,0.00,,,0.00,weatherlink.com 1.10,2013-02-04 17:58:00,
2013-02-04 12:13:00,59.5,36.0,30.09,ENE,70,3.0,6.0,42,0.00,,,0.00,weatherlink.com 1.10,2013-02-04 18:13:00,
2013-02-04 12:28:00,59.9,35.0,30.08,ESE,104,3.0,7.0,40,0.00,,,0.00,weatherlink.com 1.10,2013-02-04 18:28:00,
2013-02-04 12:43:00,61.1,35.0,30.07,WSW,246,0.0,5.0,38,0.00,,,0.00,weatherlink.com 1.10,2013-02-04 18:43:00,
2013-02-04 12:58:00,60.6,35.0,30.05,East,96,1.0,6.0,39,0.00,,,0.00,weatherlink.com 1.10,2013-02-04 18:58:00,
2013-02-04 13:13:00,61.1,35.0,30.04,South,181,1.0,9.0,38,0.00,,,0.00,weatherlink.com 1.10,2013-02-04 19:13:00,
2013-02-04 13:28:00,61.2,36.0,30.03,East,90,2.0,5.0,39,0.00,,,0.00,weatherlink.com 1.10,2013-02-04 19:28:00,
2013-02-04 13:43:00,60.9,36.0,30.03,West,281,0.0,5.0,40,0.00,,,0.00,weatherlink.com 1.10,2013-02-04 19:43:00,
2013-02-04 13:58:00,61.6,35.0,30.02,South,169,1.0,5.0,37,0.00,,,0.00,weatherlink.com 1.10,2013-02-04 19:58:00,
2013-02-04 14:13:00,61.4,35.0,30.02,SSE,152,0.0,8.0,38,0.00,,,0.00,weatherlink.com 1.10,2013-02-04 20:13:00,
2013-02-04 14:29:00,62.0,37.0,30.02,East,100,3.0,5.0,39,0.00,,,0.00,weatherlink.com 1.10,2013-02-04 20:29:00,
2013-02-04 14:43:00,61.7,38.0,30.03,SSE,150,3.0,4.0,41,0.00,,,0.00,weatherlink.com 1.10,2013-02-04 20:43:00,
2013-02-04 14:58:00,61.4,36.0,30.03,WSW,245,0.0,4.0,39,0.00,,,0.00,weatherlink.com 1.10,2013-02-04 20:58:00,
2013-02-04 15:13:00,60.7,37.0,30.03,WSW,255,1.0,4.0,42,0.00,,,0.00,weatherlink.com 1.10,2013-02-04 21:13:00,
2013-02-04 15:28:00,60.4,39.0,30.02,SE,146,0.0,2.0,45,0.00,,,0.00,weatherlink.com 1.10,2013-02-04 21:28:00,
2013-02-04 15:43:00,60.3,39.0,30.01,ESE,108,1.0,1.0,45,0.00,,,0.00,weatherlink.com 1.10,2013-02-04 21:43:00,
2013-02-04 15:58:00,59.5,39.0,30.02,East,91,0.0,1.0,47,0.00,,,0.00,weatherlink.com 1.10,2013-02-04 21:58:00,
2013-02-04 16:13:00,59.1,41.0,30.01,SE,124,0.0,2.0,51,0.00,,,0.00,weatherlink.com 1.10,2013-02-04 22:13:00,
2013-02-04 16:43:00,57.6,42.0,30.01,East,86,0.0,1.0,56,0.00,,,0.00,weatherlink.com 1.10,2013-02-04 22:43:00,
2013-02-04 16:58:00,56.7,42.0,30.01,East,86,1.0,1.0,59,0.00,,,0.00,weatherlink.com 1.10,2013-02-04 22:58:00,
2013-02-04 17:13:00,55.9,42.0,30.00,ENE,68,0.0,1.0,59,0.00,,,0.00,weatherlink.com 1.10,2013-02-04 23:13:00,
2013-02-04 17:28:00,55.7,42.0,30.00,ENE,69,0.0,1.0,61,0.00,,,0.00,weatherlink.com 1.10,2013-02-04 23:28:00,
2013-02-04 17:43:00,55.1,42.0,30.00,ENE,71,0.0,1.0,62,0.00,,,0.00,weatherlink.com 1.10,2013-02-04 23:43:00,
2013-02-04 17:58:00,54.6,43.0,30.01,ENE,71,0.0,0.0,64,0.00,,,0.00,weatherlink.com 1.10,2013-02-04 23:58:00,
2013-02-04 18:13:00,53.9,42.0,30.01,ENE,71,0.0,0.0,64,0.00,,,0.00,weatherlink.com 1.10,2013-02-05 00:13:00,
2013-02-04 18:28:00,53.4,42.0,30.01,ENE,71,0.0,0.0,66,0.00,,,0.00,weatherlink.com 1.10,2013-02-05 00:28:00,
2013-02-04 18:43:00,53.1,43.0,30.01,ENE,71,0.0,0.0,68,0.00,,,0.00,weatherlink.com 1.10,2013-02-05 00:43:00,
2013-02-04 18:58:00,52.9,43.0,30.01,ENE,71,0.0,0.0,69,0.00,,,0.00,weatherlink.com 1.10,2013-02-05 00:58:00,
2013-02-04 19:13:00,52.7,44.0,30.01,ENE,71,0.0,0.0,72,0.00,,,0.00,weatherlink.com 1.10,2013-02-05 01:13:00,
2013-02-04 19:28:00,52.4,43.0,30.02,ENE,71,0.0,0.0,70,0.00,,,0.00,weatherlink.com 1.10,2013-02-05 01:28:00,
2013-02-04 19:43:00,52.2,43.0,30.01,ENE,71,0.0,0.0,71,0.00,,,0.00,weatherlink.com 1.10,2013-02-05 01:43:00,
2013-02-04 19:58:00,52.6,43.0,30.01,East,82,0.0,1.0,70,0.00,,,0.00,weatherlink.com 1.10,2013-02-05 01:58:00,
2013-02-04 20:13:00,52.7,42.0,30.00,ENE,77,0.0,1.0,68,0.00,,,0.00,weatherlink.com 1.10,2013-02-05 02:13:00,
2013-02-04 20:28:00,51.6,44.0,30.01,ENE,78,0.0,0.0,74,0.00,,,0.00,weatherlink.com 1.10,2013-02-05 02:28:00,
2013-02-04 20:43:00,50.9,44.0,30.00,East,99,0.0,1.0,76,0.00,,,0.00,weatherlink.com 1.10,2013-02-05 02:43:00,
2013-02-04 20:58:00,51.1,44.0,30.01,East,100,0.0,0.0,77,0.00,,,0.00,weatherlink.com 1.10,2013-02-05 02:58:00,
2013-02-04 21:13:00,51.4,45.0,30.01,East,100,0.0,0.0,79,0.00,,,0.00,weatherlink.com 1.10,2013-02-05 03:13:00,
2013-02-04 21:28:00,50.9,45.0,30.01,East,100,0.0,0.0,80,0.00,,,0.00,weatherlink.com 1.10,2013-02-05 03:28:00,
2013-02-04 21:44:00,50.3,46.0,30.01,East,100,0.0,0.0,84,0.00,,,0.00,weatherlink.com 1.10,2013-02-05 03:44:00,
2013-02-04 21:58:00,50.0,45.0,30.00,East,100,0.0,0.0,84,0.00,,,0.00,weatherlink.com 1.10,2013-02-05 03:58:00,
2013-02-04 22:13:00,50.3,46.0,30.01,East,101,0.0,0.0,86,0.00,,,0.00,weatherlink.com 1.10,2013-02-05 04:13:00,
2013-02-04 22:28:00,50.5,47.0,30.00,East,100,0.0,0.0,86,0.00,,,0.00,weatherlink.com 1.10,2013-02-05 04:28:00,
2013-02-04 22:43:00,51.3,47.0,30.00,East,101,0.0,0.0,86,0.00,,,0.00,weatherlink.com 1.10,2013-02-05 04:43:00,
2013-02-04 22:58:00,50.7,46.0,30.00,East,101,0.0,0.0,84,0.00,,,0.00,weatherlink.com 1.10,2013-02-05 04:58:00,
2013-02-04 23:13:00,50.1,46.0,30.00,East,100,0.0,0.0,86,0.00,,,0.00,weatherlink.com 1.10,2013-02-05 05:13:00,
2013-02-04 23:28:00,50.1,46.0,29.99,East,100,0.0,0.0,86,0.00,,,0.00,weatherlink.com 1.10,2013-02-05 05:28:00,
2013-02-04 23:44:00,50.6,47.0,29.99,East,96,1.0,1.0,88,0.00,,,0.00,weatherlink.com 1.10,2013-02-05 05:44:00,
2013-02-04 23:59:00,51.5,48.0,29.98,East,84,0.0,1.0,88,0.00,,,0.00,weatherlink.com 1.10,2013-02-05 05:59:00,